sensor_id;sensor_type;location;lat;lon;timestamp;pressure;altitude;pressure_sealevel;temperature;humidity
60611;BME280;46439;51.164;13.572;2022-12-18T00:00:10;101642.19;;;-4.66;78.73
60611;BME280;46439;51.164;13.572;2022-12-18T00:02:38;101644.36;;;-4.69;78.56
60611;BME280;46439;51.164;13.572;2022-12-18T00:05:08;101644.56;;;-4.70;78.71
60611;BME280;46439;51.164;13.572;2022-12-18T00:07:37;101641.09;;;-4.71;78.47
60611;BME280;46439;51.164;13.572;2022-12-18T00:10:07;101644.98;;;-4.73;78.50
60611;BME280;46439;51.164;13.572;2022-12-18T00:12:37;101654.33;;;-4.74;78.52
60611;BME280;46439;51.164;13.572;2022-12-18T00:15:07;101666.16;;;-4.76;78.59
60611;BME280;46439;51.164;13.572;2022-12-18T00:17:35;101675.33;;;-4.78;78.61
60611;BME280;46439;51.164;13.572;2022-12-18T00:20:13;101677.96;;;-4.78;78.62
60611;BME280;46439;51.164;13.572;2022-12-18T00:22:41;101677.23;;;-4.77;78.74
60611;BME280;46439;51.164;13.572;2022-12-18T00:25:23;101672.72;;;-4.78;78.28
60611;BME280;46439;51.164;13.572;2022-12-18T00:27:52;101676.05;;;-4.78;78.47
60611;BME280;46439;51.164;13.572;2022-12-18T00:30:20;101674.46;;;-4.78;78.64
60611;BME280;46439;51.164;13.572;2022-12-18T00:32:49;101671.13;;;-4.79;78.34
60611;BME280;46439;51.164;13.572;2022-12-18T00:35:17;101670.27;;;-4.79;78.70
60611;BME280;46439;51.164;13.572;2022-12-18T00:37:46;101676.88;;;-4.76;78.73
60611;BME280;46439;51.164;13.572;2022-12-18T00:40:15;101683.17;;;-4.75;78.64
60611;BME280;46439;51.164;13.572;2022-12-18T00:42:43;101680.12;;;-4.79;78.71
60611;BME280;46439;51.164;13.572;2022-12-18T00:45:29;101681.98;;;-4.84;78.69
60611;BME280;46439;51.164;13.572;2022-12-18T00:47:59;101686.70;;;-4.90;78.27
60611;BME280;46439;51.164;13.572;2022-12-18T00:50:28;101692.64;;;-4.96;78.02
60611;BME280;46439;51.164;13.572;2022-12-18T00:52:56;101690.63;;;-5.00;78.10
60611;BME280;46439;51.164;13.572;2022-12-18T00:55:24;101690.80;;;-5.08;77.93
60611;BME280;46439;51.164;13.572;2022-12-18T00:57:53;101687.39;;;-5.20;77.60
60611;BME280;46439;51.164;13.572;2022-12-18T01:00:22;101679.63;;;-5.34;77.65
60611;BME280;46439;51.164;13.572;2022-12-18T01:02:50;101678.38;;;-5.41;77.29
60611;BME280;46439;51.164;13.572;2022-12-18T01:05:19;101684.70;;;-5.41;77.33
60611;BME280;46439;51.164;13.572;2022-12-18T01:07:47;101691.70;;;-5.40;77.61
60611;BME280;46439;51.164;13.572;2022-12-18T01:10:16;101693.02;;;-5.36;77.68
60611;BME280;46439;51.164;13.572;2022-12-18T01:12:45;101698.80;;;-5.35;77.49
60611;BME280;46439;51.164;13.572;2022-12-18T01:15:14;101701.35;;;-5.32;77.81
60611;BME280;46439;51.164;13.572;2022-12-18T01:17:43;101702.80;;;-5.26;77.94
60611;BME280;46439;51.164;13.572;2022-12-18T01:20:13;101704.79;;;-5.21;78.00
60611;BME280;46439;51.164;13.572;2022-12-18T01:22:41;101704.07;;;-5.20;78.29
60611;BME280;46439;51.164;13.572;2022-12-18T01:25:11;101707.58;;;-5.20;78.02
60611;BME280;46439;51.164;13.572;2022-12-18T01:27:39;101712.79;;;-5.17;78.13
60611;BME280;46439;51.164;13.572;2022-12-18T01:30:09;101718.35;;;-5.15;78.28
60611;BME280;46439;51.164;13.572;2022-12-18T01:32:38;101720.59;;;-5.13;78.16
60611;BME280;46439;51.164;13.572;2022-12-18T01:35:08;101715.09;;;-5.10;78.04
60611;BME280;46439;51.164;13.572;2022-12-18T01:37:37;101711.86;;;-5.07;78.17
60611;BME280;46439;51.164;13.572;2022-12-18T01:40:08;101708.80;;;-5.04;78.33
60611;BME280;46439;51.164;13.572;2022-12-18T01:42:37;101705.76;;;-5.02;78.52
60611;BME280;46439;51.164;13.572;2022-12-18T01:45:08;101704.58;;;-5.11;78.34
60611;BME280;46439;51.164;13.572;2022-12-18T01:47:52;101704.71;;;-5.25;78.01
60611;BME280;46439;51.164;13.572;2022-12-18T01:50:23;101704.80;;;-5.29;77.75
60611;BME280;46439;51.164;13.572;2022-12-18T01:52:55;101707.63;;;-5.31;78.02
60611;BME280;46439;51.164;13.572;2022-12-18T01:55:26;101710.56;;;-5.28;78.00
60611;BME280;46439;51.164;13.572;2022-12-18T01:57:58;101715.45;;;-5.26;77.97
60611;BME280;46439;51.164;13.572;2022-12-18T02:00:28;101713.55;;;-5.27;78.03
60611;BME280;46439;51.164;13.572;2022-12-18T02:02:57;101716.32;;;-5.26;78.32
60611;BME280;46439;51.164;13.572;2022-12-18T02:05:34;101711.40;;;-5.26;78.07
60611;BME280;46439;51.164;13.572;2022-12-18T02:08:12;101709.11;;;-5.26;78.21
60611;BME280;46439;51.164;13.572;2022-12-18T02:10:48;101713.44;;;-5.23;78.25
60611;BME280;46439;51.164;13.572;2022-12-18T02:13:30;101716.46;;;-5.25;78.08
60611;BME280;46439;51.164;13.572;2022-12-18T02:16:05;101713.16;;;-5.26;78.46
60611;BME280;46439;51.164;13.572;2022-12-18T02:18:38;101712.63;;;-5.26;78.35
60611;BME280;46439;51.164;13.572;2022-12-18T02:21:18;101711.86;;;-5.31;78.31
60611;BME280;46439;51.164;13.572;2022-12-18T02:23:55;101710.77;;;-5.29;78.28
60611;BME280;46439;51.164;13.572;2022-12-18T02:26:28;101711.25;;;-5.27;78.35
60611;BME280;46439;51.164;13.572;2022-12-18T02:29:03;101719.52;;;-5.28;78.10
60611;BME280;46439;51.164;13.572;2022-12-18T02:31:35;101726.25;;;-5.31;78.10
60611;BME280;46439;51.164;13.572;2022-12-18T02:34:07;101731.15;;;-5.30;78.40
60611;BME280;46439;51.164;13.572;2022-12-18T02:36:38;101724.86;;;-5.31;78.04
60611;BME280;46439;51.164;13.572;2022-12-18T02:39:10;101723.25;;;-5.30;78.42
60611;BME280;46439;51.164;13.572;2022-12-18T02:41:40;101723.59;;;-5.29;78.06
60611;BME280;46439;51.164;13.572;2022-12-18T02:44:11;101728.47;;;-5.28;78.28
60611;BME280;46439;51.164;13.572;2022-12-18T02:46:42;101729.75;;;-5.30;78.16
60611;BME280;46439;51.164;13.572;2022-12-18T02:49:29;101729.98;;;-5.33;77.97
60611;BME280;46439;51.164;13.572;2022-12-18T02:52:04;101733.86;;;-5.34;77.98
60611;BME280;46439;51.164;13.572;2022-12-18T02:54:47;101732.34;;;-5.36;77.85
60611;BME280;46439;51.164;13.572;2022-12-18T02:57:22;101725.61;;;-5.33;78.09
60611;BME280;46439;51.164;13.572;2022-12-18T02:59:58;101726.77;;;-5.30;77.91
60611;BME280;46439;51.164;13.572;2022-12-18T03:02:33;101729.70;;;-5.28;78.10
60611;BME280;46439;51.164;13.572;2022-12-18T03:05:09;101729.38;;;-5.30;78.15
60611;BME280;46439;51.164;13.572;2022-12-18T03:07:57;101727.70;;;-5.33;78.18
60611;BME280;46439;51.164;13.572;2022-12-18T03:10:31;101731.26;;;-5.35;77.98
60611;BME280;46439;51.164;13.572;2022-12-18T03:13:04;101724.48;;;-5.38;77.84
60611;BME280;46439;51.164;13.572;2022-12-18T03:15:36;101725.52;;;-5.37;77.83
60611;BME280;46439;51.164;13.572;2022-12-18T03:18:08;101728.36;;;-5.39;78.03
60611;BME280;46439;51.164;13.572;2022-12-18T03:20:41;101729.80;;;-5.49;77.76
60611;BME280;46439;51.164;13.572;2022-12-18T03:23:13;101737.45;;;-5.54;77.58
60611;BME280;46439;51.164;13.572;2022-12-18T03:25:45;101742.65;;;-5.59;77.47
60611;BME280;46439;51.164;13.572;2022-12-18T03:28:18;101742.35;;;-5.63;77.43
60611;BME280;46439;51.164;13.572;2022-12-18T03:30:49;101737.77;;;-5.61;77.53
60611;BME280;46439;51.164;13.572;2022-12-18T03:33:21;101741.77;;;-5.60;77.34
60611;BME280;46439;51.164;13.572;2022-12-18T03:35:52;101744.33;;;-5.56;77.69
60611;BME280;46439;51.164;13.572;2022-12-18T03:38:21;101747.95;;;-5.53;77.60
60611;BME280;46439;51.164;13.572;2022-12-18T03:40:58;101743.20;;;-5.52;77.56
60611;BME280;46439;51.164;13.572;2022-12-18T03:43:35;101742.67;;;-5.61;77.76
60611;BME280;46439;51.164;13.572;2022-12-18T03:46:09;101743.43;;;-5.64;77.68
60611;BME280;46439;51.164;13.572;2022-12-18T03:48:43;101745.73;;;-5.65;77.61
60611;BME280;46439;51.164;13.572;2022-12-18T03:51:17;101745.88;;;-5.63;77.48
60611;BME280;46439;51.164;13.572;2022-12-18T03:53:53;101747.31;;;-5.65;77.54
60611;BME280;46439;51.164;13.572;2022-12-18T03:56:26;101748.44;;;-5.69;77.51
60611;BME280;46439;51.164;13.572;2022-12-18T03:58:58;101745.09;;;-5.68;77.38
60611;BME280;46439;51.164;13.572;2022-12-18T04:01:32;101744.15;;;-5.65;77.38
60611;BME280;46439;51.164;13.572;2022-12-18T04:04:03;101750.97;;;-5.64;77.54
60611;BME280;46439;51.164;13.572;2022-12-18T04:06:34;101754.88;;;-5.66;77.65
60611;BME280;46439;51.164;13.572;2022-12-18T04:09:02;101758.29;;;-5.70;77.68
60611;BME280;46439;51.164;13.572;2022-12-18T04:11:31;101759.36;;;-5.71;77.74
60611;BME280;46439;51.164;13.572;2022-12-18T04:13:59;101757.89;;;-5.68;77.50
60611;BME280;46439;51.164;13.572;2022-12-18T04:16:28;101761.86;;;-5.65;77.59
60611;BME280;46439;51.164;13.572;2022-12-18T04:18:57;101766.94;;;-5.64;77.81
60611;BME280;46439;51.164;13.572;2022-12-18T04:21:26;101766.05;;;-5.73;77.75
60611;BME280;46439;51.164;13.572;2022-12-18T04:23:54;101759.27;;;-5.84;77.34
60611;BME280;46439;51.164;13.572;2022-12-18T04:26:23;101758.79;;;-5.86;77.34
60611;BME280;46439;51.164;13.572;2022-12-18T04:28:52;101766.38;;;-5.89;77.39
60611;BME280;46439;51.164;13.572;2022-12-18T04:31:20;101768.47;;;-5.89;77.42
60611;BME280;46439;51.164;13.572;2022-12-18T04:33:49;101770.66;;;-5.84;77.41
60611;BME280;46439;51.164;13.572;2022-12-18T04:36:18;101771.29;;;-5.80;77.53
60611;BME280;46439;51.164;13.572;2022-12-18T04:38:46;101772.13;;;-5.78;77.34
60611;BME280;46439;51.164;13.572;2022-12-18T04:41:17;101777.91;;;-5.77;77.76
60611;BME280;46439;51.164;13.572;2022-12-18T04:43:46;101774.69;;;-5.74;77.74
60611;BME280;46439;51.164;13.572;2022-12-18T04:46:14;101768.64;;;-5.70;77.48
60611;BME280;46439;51.164;13.572;2022-12-18T04:48:44;101767.73;;;-5.68;77.95
60611;BME280;46439;51.164;13.572;2022-12-18T04:51:13;101768.92;;;-5.66;77.83
60611;BME280;46439;51.164;13.572;2022-12-18T04:53:42;101773.14;;;-5.67;77.99
60611;BME280;46439;51.164;13.572;2022-12-18T04:56:12;101771.95;;;-5.78;77.65
60611;BME280;46439;51.164;13.572;2022-12-18T04:58:44;101769.73;;;-5.82;77.51
60611;BME280;46439;51.164;13.572;2022-12-18T05:01:14;101772.34;;;-5.80;77.40
60611;BME280;46439;51.164;13.572;2022-12-18T05:03:43;101774.60;;;-5.79;77.33
60611;BME280;46439;51.164;13.572;2022-12-18T05:06:11;101771.60;;;-5.78;77.43
60611;BME280;46439;51.164;13.572;2022-12-18T05:08:40;101768.61;;;-5.77;77.53
60611;BME280;46439;51.164;13.572;2022-12-18T05:11:10;101769.48;;;-5.77;77.67
60611;BME280;46439;51.164;13.572;2022-12-18T05:13:39;101771.02;;;-5.74;77.98
60611;BME280;46439;51.164;13.572;2022-12-18T05:16:09;101776.73;;;-5.72;77.75
60611;BME280;46439;51.164;13.572;2022-12-18T05:18:38;101778.61;;;-5.69;77.74
60611;BME280;46439;51.164;13.572;2022-12-18T05:21:07;101781.71;;;-5.66;77.78
60611;BME280;46439;51.164;13.572;2022-12-18T05:23:38;101785.37;;;-5.65;77.80
60611;BME280;46439;51.164;13.572;2022-12-18T05:26:08;101781.50;;;-5.64;77.99
60611;BME280;46439;51.164;13.572;2022-12-18T05:28:37;101774.84;;;-5.65;77.72
60611;BME280;46439;51.164;13.572;2022-12-18T05:31:06;101770.98;;;-5.64;77.68
60611;BME280;46439;51.164;13.572;2022-12-18T05:33:35;101772.73;;;-5.64;77.61
60611;BME280;46439;51.164;13.572;2022-12-18T05:36:06;101777.84;;;-5.65;77.81
60611;BME280;46439;51.164;13.572;2022-12-18T05:38:36;101778.73;;;-5.66;77.59
60611;BME280;46439;51.164;13.572;2022-12-18T05:41:06;101774.64;;;-5.63;77.78
60611;BME280;46439;51.164;13.572;2022-12-18T05:43:37;101775.99;;;-5.60;77.78
60611;BME280;46439;51.164;13.572;2022-12-18T05:46:07;101775.09;;;-5.59;77.77
60611;BME280;46439;51.164;13.572;2022-12-18T05:48:36;101776.17;;;-5.61;77.61
60611;BME280;46439;51.164;13.572;2022-12-18T05:51:09;101776.88;;;-5.61;78.00
60611;BME280;46439;51.164;13.572;2022-12-18T05:53:39;101779.30;;;-5.60;77.63
60611;BME280;46439;51.164;13.572;2022-12-18T05:56:11;101772.48;;;-5.60;77.83
60611;BME280;46439;51.164;13.572;2022-12-18T05:58:40;101774.63;;;-5.63;77.68
60611;BME280;46439;51.164;13.572;2022-12-18T06:01:10;101776.94;;;-5.64;77.79
60611;BME280;46439;51.164;13.572;2022-12-18T06:03:39;101780.08;;;-5.63;77.65
60611;BME280;46439;51.164;13.572;2022-12-18T06:06:16;101782.33;;;-5.62;78.01
60611;BME280;46439;51.164;13.572;2022-12-18T06:08:44;101789.86;;;-5.61;77.63
60611;BME280;46439;51.164;13.572;2022-12-18T06:11:15;101794.62;;;-5.63;77.71
60611;BME280;46439;51.164;13.572;2022-12-18T06:13:45;101801.13;;;-5.63;77.92
60611;BME280;46439;51.164;13.572;2022-12-18T06:16:13;101802.17;;;-5.63;77.96
60611;BME280;46439;51.164;13.572;2022-12-18T06:18:42;101802.41;;;-5.66;77.66
60611;BME280;46439;51.164;13.572;2022-12-18T06:21:10;101807.56;;;-5.70;77.53
60611;BME280;46439;51.164;13.572;2022-12-18T06:23:39;101806.60;;;-5.74;77.26
60611;BME280;46439;51.164;13.572;2022-12-18T06:26:09;101807.36;;;-5.77;77.69
60611;BME280;46439;51.164;13.572;2022-12-18T06:28:38;101813.25;;;-5.83;77.27
60611;BME280;46439;51.164;13.572;2022-12-18T06:31:07;101819.66;;;-5.88;77.23
60611;BME280;46439;51.164;13.572;2022-12-18T06:33:36;101816.30;;;-5.87;77.26
60611;BME280;46439;51.164;13.572;2022-12-18T06:36:07;101812.11;;;-5.87;77.34
60611;BME280;46439;51.164;13.572;2022-12-18T06:38:38;101815.93;;;-5.86;77.32
60611;BME280;46439;51.164;13.572;2022-12-18T06:41:10;101820.98;;;-5.84;77.32
60611;BME280;46439;51.164;13.572;2022-12-18T06:43:39;101817.27;;;-5.82;77.37
60611;BME280;46439;51.164;13.572;2022-12-18T06:46:08;101823.05;;;-5.82;77.36
60611;BME280;46439;51.164;13.572;2022-12-18T06:48:37;101823.80;;;-5.85;77.50
60611;BME280;46439;51.164;13.572;2022-12-18T06:51:06;101826.08;;;-5.85;77.37
60611;BME280;46439;51.164;13.572;2022-12-18T06:53:34;101831.70;;;-5.85;77.55
60611;BME280;46439;51.164;13.572;2022-12-18T06:56:05;101832.05;;;-5.85;77.56
60611;BME280;46439;51.164;13.572;2022-12-18T06:58:34;101836.17;;;-5.90;77.29
60611;BME280;46439;51.164;13.572;2022-12-18T07:01:05;101840.61;;;-5.93;77.48
60611;BME280;46439;51.164;13.572;2022-12-18T07:03:34;101840.52;;;-5.96;77.23
60611;BME280;46439;51.164;13.572;2022-12-18T07:06:04;101839.28;;;-5.96;77.44
60611;BME280;46439;51.164;13.572;2022-12-18T07:08:33;101838.08;;;-5.97;77.02
60611;BME280;46439;51.164;13.572;2022-12-18T07:11:04;101839.77;;;-6.03;77.01
60611;BME280;46439;51.164;13.572;2022-12-18T07:13:33;101838.69;;;-6.12;77.09
60611;BME280;46439;51.164;13.572;2022-12-18T07:16:08;101844.80;;;-6.22;76.66
60611;BME280;46439;51.164;13.572;2022-12-18T07:18:37;101843.95;;;-6.34;76.74
60611;BME280;46439;51.164;13.572;2022-12-18T07:21:07;101843.90;;;-6.42;76.56
60611;BME280;46439;51.164;13.572;2022-12-18T07:23:36;101842.70;;;-6.43;76.38
60611;BME280;46439;51.164;13.572;2022-12-18T07:26:06;101846.56;;;-6.45;76.70
60611;BME280;46439;51.164;13.572;2022-12-18T07:28:36;101850.62;;;-6.46;76.38
60611;BME280;46439;51.164;13.572;2022-12-18T07:31:06;101854.93;;;-6.53;76.29
60611;BME280;46439;51.164;13.572;2022-12-18T07:33:35;101859.79;;;-6.51;76.09
60611;BME280;46439;51.164;13.572;2022-12-18T07:36:06;101861.99;;;-6.45;76.31
60611;BME280;46439;51.164;13.572;2022-12-18T07:38:36;101854.49;;;-6.36;76.49
60611;BME280;46439;51.164;13.572;2022-12-18T07:41:06;101857.48;;;-6.25;77.02
60611;BME280;46439;51.164;13.572;2022-12-18T07:43:35;101860.08;;;-6.24;76.77
60611;BME280;46439;51.164;13.572;2022-12-18T07:46:04;101867.33;;;-6.28;76.86
60611;BME280;46439;51.164;13.572;2022-12-18T07:48:33;101869.42;;;-6.27;76.83
60611;BME280;46439;51.164;13.572;2022-12-18T07:51:03;101873.26;;;-6.26;76.81
60611;BME280;46439;51.164;13.572;2022-12-18T07:53:33;101872.09;;;-6.19;77.07
60611;BME280;46439;51.164;13.572;2022-12-18T07:56:03;101872.56;;;-6.15;77.14
60611;BME280;46439;51.164;13.572;2022-12-18T07:58:33;101868.67;;;-6.13;76.95
60611;BME280;46439;51.164;13.572;2022-12-18T08:01:06;101866.64;;;-6.07;77.32
60611;BME280;46439;51.164;13.572;2022-12-18T08:03:36;101867.60;;;-6.01;77.48
60611;BME280;46439;51.164;13.572;2022-12-18T08:06:07;101870.95;;;-5.93;77.26
60611;BME280;46439;51.164;13.572;2022-12-18T08:08:37;101866.80;;;-5.87;77.44
60611;BME280;46439;51.164;13.572;2022-12-18T08:11:14;101862.63;;;-5.79;77.58
60611;BME280;46439;51.164;13.572;2022-12-18T08:13:58;101861.81;;;-5.73;77.62
60611;BME280;46439;51.164;13.572;2022-12-18T08:16:38;101859.74;;;-5.75;77.80
60611;BME280;46439;51.164;13.572;2022-12-18T08:19:12;101859.20;;;-5.73;77.76
60611;BME280;46439;51.164;13.572;2022-12-18T08:21:44;101861.58;;;-5.69;77.51
60611;BME280;46439;51.164;13.572;2022-12-18T08:24:12;101858.95;;;-5.60;77.96
60611;BME280;46439;51.164;13.572;2022-12-18T08:26:41;101860.22;;;-5.53;77.80
60611;BME280;46439;51.164;13.572;2022-12-18T08:29:10;101862.80;;;-5.50;78.08
60611;BME280;46439;51.164;13.572;2022-12-18T08:31:39;101863.05;;;-5.44;77.68
60611;BME280;46439;51.164;13.572;2022-12-18T08:34:07;101866.58;;;-5.37;78.26
60611;BME280;46439;51.164;13.572;2022-12-18T08:36:36;101869.82;;;-5.32;78.14
60611;BME280;46439;51.164;13.572;2022-12-18T08:39:05;101864.45;;;-5.26;78.32
60611;BME280;46439;51.164;13.572;2022-12-18T08:41:33;101868.21;;;-5.22;78.23
60611;BME280;46439;51.164;13.572;2022-12-18T08:44:02;101869.36;;;-5.18;78.37
60611;BME280;46439;51.164;13.572;2022-12-18T08:46:49;101867.73;;;-5.15;78.30
60611;BME280;46439;51.164;13.572;2022-12-18T08:49:17;101867.80;;;-5.10;78.21
60611;BME280;46439;51.164;13.572;2022-12-18T08:51:46;101871.20;;;-5.05;78.28
60611;BME280;46439;51.164;13.572;2022-12-18T08:54:15;101871.60;;;-4.99;78.42
60611;BME280;46439;51.164;13.572;2022-12-18T08:56:43;101878.19;;;-4.94;78.31
60611;BME280;46439;51.164;13.572;2022-12-18T08:59:12;101880.02;;;-4.90;78.55
60611;BME280;46439;51.164;13.572;2022-12-18T09:01:40;101876.45;;;-4.88;78.31
60611;BME280;46439;51.164;13.572;2022-12-18T09:04:13;101872.42;;;-4.79;78.51
60611;BME280;46439;51.164;13.572;2022-12-18T09:06:43;101875.08;;;-4.71;78.81
60611;BME280;46439;51.164;13.572;2022-12-18T09:09:12;101871.97;;;-4.67;78.47
60611;BME280;46439;51.164;13.572;2022-12-18T09:11:40;101879.90;;;-4.60;78.94
60611;BME280;46439;51.164;13.572;2022-12-18T09:14:11;101884.23;;;-4.57;78.40
60611;BME280;46439;51.164;13.572;2022-12-18T09:16:39;101892.98;;;-4.55;78.84
60611;BME280;46439;51.164;13.572;2022-12-18T09:19:08;101895.82;;;-4.49;78.81
60611;BME280;46439;51.164;13.572;2022-12-18T09:21:40;101901.30;;;-4.42;78.85
60611;BME280;46439;51.164;13.572;2022-12-18T09:24:13;101905.31;;;-4.34;78.86
60611;BME280;46439;51.164;13.572;2022-12-18T09:26:41;101906.23;;;-4.28;78.87
60611;BME280;46439;51.164;13.572;2022-12-18T09:29:10;101898.02;;;-4.22;78.97
60611;BME280;46439;51.164;13.572;2022-12-18T09:31:39;101892.95;;;-4.24;78.81
60611;BME280;46439;51.164;13.572;2022-12-18T09:34:08;101899.25;;;-4.22;78.76
60611;BME280;46439;51.164;13.572;2022-12-18T09:36:38;101900.92;;;-4.18;78.89
60611;BME280;46439;51.164;13.572;2022-12-18T09:39:07;101898.86;;;-4.20;78.86
60611;BME280;46439;51.164;13.572;2022-12-18T09:41:41;101896.55;;;-4.20;78.98
60611;BME280;46439;51.164;13.572;2022-12-18T09:44:18;101888.91;;;-4.16;78.87
60611;BME280;46439;51.164;13.572;2022-12-18T09:46:53;101889.29;;;-4.10;78.83
60611;BME280;46439;51.164;13.572;2022-12-18T09:49:25;101888.88;;;-4.08;78.74
60611;BME280;46439;51.164;13.572;2022-12-18T09:51:59;101878.39;;;-4.02;79.00
60611;BME280;46439;51.164;13.572;2022-12-18T09:54:35;101877.85;;;-4.02;78.86
60611;BME280;46439;51.164;13.572;2022-12-18T09:57:05;101878.60;;;-4.04;78.70
60611;BME280;46439;51.164;13.572;2022-12-18T09:59:37;101876.55;;;-4.07;78.74
60611;BME280;46439;51.164;13.572;2022-12-18T10:02:17;101871.82;;;-4.08;78.58
60611;BME280;46439;51.164;13.572;2022-12-18T10:04:54;101859.40;;;-4.03;78.61
60611;BME280;46439;51.164;13.572;2022-12-18T10:07:29;101849.34;;;-4.01;78.90
60611;BME280;46439;51.164;13.572;2022-12-18T10:10:05;101845.98;;;-4.01;78.65
60611;BME280;46439;51.164;13.572;2022-12-18T10:12:46;101843.46;;;-3.98;78.79
60611;BME280;46439;51.164;13.572;2022-12-18T10:15:24;101838.41;;;-3.80;78.96
60611;BME280;46439;51.164;13.572;2022-12-18T10:18:00;101830.54;;;-3.75;78.99
60611;BME280;46439;51.164;13.572;2022-12-18T10:20:40;101826.74;;;-3.71;79.34
60611;BME280;46439;51.164;13.572;2022-12-18T10:23:16;101820.16;;;-3.68;79.14
60611;BME280;46439;51.164;13.572;2022-12-18T10:25:53;101815.34;;;-3.59;79.20
60611;BME280;46439;51.164;13.572;2022-12-18T10:28:24;101814.46;;;-3.53;79.15
60611;BME280;46439;51.164;13.572;2022-12-18T10:30:53;101812.98;;;-3.50;79.39
60611;BME280;46439;51.164;13.572;2022-12-18T10:33:23;101806.78;;;-3.49;79.13
60611;BME280;46439;51.164;13.572;2022-12-18T10:35:56;101800.23;;;-3.48;79.25
60611;BME280;46439;51.164;13.572;2022-12-18T10:38:27;101799.31;;;-3.46;79.30
60611;BME280;46439;51.164;13.572;2022-12-18T10:40:58;101799.67;;;-3.40;79.01
60611;BME280;46439;51.164;13.572;2022-12-18T10:43:29;101793.23;;;-3.37;79.19
60611;BME280;46439;51.164;13.572;2022-12-18T10:46:14;101789.80;;;-3.34;79.41
60611;BME280;46439;51.164;13.572;2022-12-18T10:48:54;101788.36;;;-3.26;79.18
60611;BME280;46439;51.164;13.572;2022-12-18T10:51:26;101790.10;;;-3.19;79.42
60611;BME280;46439;51.164;13.572;2022-12-18T10:53:57;101794.95;;;-3.11;79.42
60611;BME280;46439;51.164;13.572;2022-12-18T10:56:29;101793.55;;;-3.05;79.49
60611;BME280;46439;51.164;13.572;2022-12-18T10:59:01;101785.42;;;-2.99;79.57
60611;BME280;46439;51.164;13.572;2022-12-18T11:01:33;101779.74;;;-2.92;79.77
60611;BME280;46439;51.164;13.572;2022-12-18T11:04:15;101776.40;;;-2.86;79.75
60611;BME280;46439;51.164;13.572;2022-12-18T11:06:56;101774.09;;;-2.80;79.80
60611;BME280;46439;51.164;13.572;2022-12-18T11:09:29;101770.14;;;-2.77;79.64
60611;BME280;46439;51.164;13.572;2022-12-18T11:12:01;101763.81;;;-2.78;79.51
60611;BME280;46439;51.164;13.572;2022-12-18T11:14:32;101757.30;;;-2.73;79.77
60611;BME280;46439;51.164;13.572;2022-12-18T11:17:02;101752.45;;;-2.70;79.78
60611;BME280;46439;51.164;13.572;2022-12-18T11:19:36;101748.77;;;-2.64;79.87
60611;BME280;46439;51.164;13.572;2022-12-18T11:22:20;101745.56;;;-2.59;79.73
60611;BME280;46439;51.164;13.572;2022-12-18T11:24:56;101747.20;;;-2.49;79.98
60611;BME280;46439;51.164;13.572;2022-12-18T11:27:26;101753.77;;;-2.45;80.06
60611;BME280;46439;51.164;13.572;2022-12-18T11:30:13;101751.65;;;-2.40;79.88
60611;BME280;46439;51.164;13.572;2022-12-18T11:32:50;101745.93;;;-2.37;79.86
60611;BME280;46439;51.164;13.572;2022-12-18T11:35:23;101745.10;;;-2.34;80.01
60611;BME280;46439;51.164;13.572;2022-12-18T11:37:58;101744.09;;;-2.25;80.06
60611;BME280;46439;51.164;13.572;2022-12-18T11:40:33;101745.63;;;-2.18;80.22
60611;BME280;46439;51.164;13.572;2022-12-18T11:43:07;101742.77;;;-2.11;80.32
60611;BME280;46439;51.164;13.572;2022-12-18T11:45:43;101745.34;;;-2.09;80.42
60611;BME280;46439;51.164;13.572;2022-12-18T11:48:18;101747.85;;;-2.06;80.30
60611;BME280;46439;51.164;13.572;2022-12-18T11:50:52;101753.46;;;-2.05;80.25
60611;BME280;46439;51.164;13.572;2022-12-18T11:53:22;101762.20;;;-2.02;80.24
60611;BME280;46439;51.164;13.572;2022-12-18T11:56:01;101761.31;;;-1.98;80.10
60611;BME280;46439;51.164;13.572;2022-12-18T11:58:47;101754.02;;;-1.90;80.42
60611;BME280;46439;51.164;13.572;2022-12-18T12:01:27;101758.48;;;-1.82;80.41
60611;BME280;46439;51.164;13.572;2022-12-18T12:04:08;101760.06;;;-1.77;80.36
60611;BME280;46439;51.164;13.572;2022-12-18T12:06:48;101766.11;;;-1.68;80.55
60611;BME280;46439;51.164;13.572;2022-12-18T12:09:27;101766.47;;;-1.49;80.86
60611;BME280;46439;51.164;13.572;2022-12-18T12:12:09;101762.52;;;-1.43;80.78
60611;BME280;46439;51.164;13.572;2022-12-18T12:14:49;101761.41;;;-1.41;80.77
60611;BME280;46439;51.164;13.572;2022-12-18T12:17:32;101767.59;;;-1.46;80.69
60611;BME280;46439;51.164;13.572;2022-12-18T12:20:10;101771.83;;;-1.51;80.45
60611;BME280;46439;51.164;13.572;2022-12-18T12:22:48;101778.88;;;-1.55;80.25
60611;BME280;46439;51.164;13.572;2022-12-18T12:25:29;101785.80;;;-1.56;80.26
60611;BME280;46439;51.164;13.572;2022-12-18T12:28:10;101786.70;;;-1.57;80.28
60611;BME280;46439;51.164;13.572;2022-12-18T12:30:48;101789.14;;;-1.56;80.33
60611;BME280;46439;51.164;13.572;2022-12-18T12:33:31;101796.56;;;-1.56;80.22
60611;BME280;46439;51.164;13.572;2022-12-18T12:36:03;101801.09;;;-1.59;80.23
60611;BME280;46439;51.164;13.572;2022-12-18T12:38:41;101801.46;;;-1.61;80.09
60611;BME280;46439;51.164;13.572;2022-12-18T12:41:14;101803.17;;;-1.59;80.21
60611;BME280;46439;51.164;13.572;2022-12-18T12:44:07;101794.18;;;-1.54;80.23
60611;BME280;46439;51.164;13.572;2022-12-18T12:46:40;101782.02;;;-1.50;80.23
60611;BME280;46439;51.164;13.572;2022-12-18T12:49:13;101771.23;;;-1.49;80.35
60611;BME280;46439;51.164;13.572;2022-12-18T12:51:45;101768.56;;;-1.48;80.31
60611;BME280;46439;51.164;13.572;2022-12-18T12:54:17;101773.80;;;-1.47;80.19
60611;BME280;46439;51.164;13.572;2022-12-18T12:56:50;101775.44;;;-1.48;80.41
60611;BME280;46439;51.164;13.572;2022-12-18T12:59:27;101769.98;;;-1.48;80.35
60611;BME280;46439;51.164;13.572;2022-12-18T13:02:04;101757.81;;;-1.53;80.19
60611;BME280;46439;51.164;13.572;2022-12-18T13:04:36;101756.51;;;-1.57;79.96